Time;durP1;ratioP1;P1;durP2;ratioP2;P2;SDS_P1;SDS_P2;PMS_P1;PMS_P2;Temp;Humidity;BMP_temperature;BMP_pressure;BME280_temperature;BME280_humidity;BME280_pressure;Samples;Min_cycle;Max_cycle;Signal;HPM_P1;HPM_P2
2022/09/08 14:44:03;;;;;;;;;0.00;0.00;;;;;-144.96;100.00;-15791.16;5104233;27;45285;-79
2022/09/08 14:46:28;;;;;;;;;1.00;0.00;;;;;-144.96;100.00;-15791.16;5091588;27;45544;-82
2022/09/08 14:49:20;;;;;;;;;1.00;1.00;;;;;-144.96;100.00;-15791.16;5084935;27;44930;-84
2022/09/08 14:53:41;;;;;;;;;1.00;1.00;;;;;-144.96;100.00;-15791.16;5108359;27;45359;-82
2022/09/08 14:56:15;;;;;;;;;1.00;1.00;;;;;-144.96;100.00;-15791.16;5076294;27;45401;-85
2022/09/08 14:58:52;;;;;;;;;2.60;1.00;;;;;-144.96;100.00;-15791.16;5092412;27;44831;-84
2022/09/08 15:01:23;;;;;;;;;0.40;0.00;;;;;-144.96;100.00;-15791.16;5074036;28;45158;-84
2022/09/08 15:04:00;;;;;;;;;1.00;1.00;;;;;-144.96;100.00;-15791.16;5076769;27;44991;-85
2022/09/08 15:06:34;;;;;;;;;0.80;0.40;;;;;-144.96;100.00;-15791.16;5081987;27;44873;-85
2022/09/08 15:09:28;;;;;;;;;1.00;1.00;;;;;-144.96;100.00;-15791.16;5074821;28;44860;-86
2022/09/08 15:11:57;;;;;;;;;2.00;0.00;;;;;-144.96;100.00;-15791.16;5077656;27;45414;-84
2022/09/08 15:14:31;;;;;;;;;3.20;0.20;;;;;-144.96;100.00;-15791.16;5078839;27;45225;-85
2022/09/08 15:17:20;;;;;;;;;2.80;1.80;;;;;-144.96;100.00;-15791.16;5074982;28;44866;-84
2022/09/08 15:20:00;;;;;;;;;2.00;1.00;;;;;-144.96;100.00;-15791.16;5073877;28;45231;-84
2022/09/08 15:22:34;;;;;;;;;2.00;0.00;;;;;-144.96;100.00;-15791.16;5079686;28;44920;-86
2022/09/08 15:25:14;;;;;;;;;2.00;0.00;;;;;-144.96;100.00;-15791.16;5072676;28;45472;-85
2022/09/08 15:27:46;;;;;;;;;1.00;1.00;;;;;-144.96;100.00;-15791.16;5074628;28;45532;-86
2022/09/08 15:30:21;;;;;;;;;2.00;0.40;;;;;-144.96;100.00;-15791.16;5077683;27;45500;-85
2022/09/08 15:33:12;;;;;;;;;2.00;1.00;;;;;-144.96;100.00;-15791.16;5073747;27;44774;-84
2022/09/08 15:35:59;;;;;;;;;2.40;1.00;;;;;-144.96;100.00;-15791.16;5074927;27;45253;-84
2022/09/08 15:38:49;;;;;;;;;0.20;0.20;;;;;-144.96;100.00;-15791.16;5072555;28;44984;-83
2022/09/08 15:41:29;;;;;;;;;4.40;1.60;;;;;-144.96;100.00;-15791.16;5073036;27;45224;-83
2022/09/08 15:44:14;;;;;;;;;3.60;1.60;;;;;-144.96;100.00;-15791.16;5059568;28;45302;-82
2022/09/08 15:47:05;;;;;;;;;0.00;0.00;;;;;-144.96;100.00;-15791.16;5052547;28;45597;-83
2022/09/08 15:49:59;;;;;;;;;2.20;1.00;;;;;-144.96;100.00;-15791.16;5067287;28;45360;-82
2022/09/08 15:52:46;;;;;;;;;1.00;1.00;;;;;-144.96;100.00;-15791.16;5084473;27;45294;-82
2022/09/08 15:55:32;;;;;;;;;0.00;0.00;;;;;-144.96;100.00;-15791.16;5096836;27;44834;-82
2022/09/08 15:57:58;;;;;;;;;0.00;0.00;;;;;-144.96;100.00;-15791.16;5096734;27;45334;-82
2022/09/08 16:00:45;;;;;;;;;2.00;0.00;;;;;-144.96;100.00;-15791.16;5097072;27;44738;-82
2022/09/08 16:03:12;;;;;;;;;0.80;0.00;;;;;-144.96;100.00;-15791.16;5091574;27;45232;-82
2022/09/08 16:05:52;;;;;;;;;3.00;1.00;;;;;-144.96;100.00;-15791.16;5079989;28;44766;-82
2022/09/08 16:08:34;;;;;;;;;3.00;0.00;;;;;-144.96;100.00;-15791.16;5079491;28;45380;-83
2022/09/08 16:11:11;;;;;;;;;0.00;0.00;;;;;-144.96;100.00;-15791.16;5079379;27;44825;-82
2022/09/08 16:13:49;;;;;;;;;1.40;0.00;;;;;-144.96;100.00;-15791.16;5079325;28;45368;-82
2022/09/08 16:16:45;;;;;;;;;0.60;0.00;;;;;-144.96;100.00;-15791.16;5061394;28;44857;-82
2022/09/08 16:19:26;;;;;;;;;0.00;0.00;;;;;-144.96;100.00;-15791.16;5079234;28;44966;-82
2022/09/08 16:22:10;;;;;;;;;1.20;0.00;;;;;-144.96;100.00;-15791.16;5079719;28;44821;-82
2022/09/08 16:24:42;;;;;;;;;1.60;0.00;;;;;-144.96;100.00;-15791.16;5079408;27;44727;-82
2022/09/08 16:27:23;;;;;;;;;0.00;0.00;;;;;-144.96;100.00;-15791.16;5078906;27;45375;-82
2022/09/08 16:30:03;;;;;;;;;1.00;0.00;;;;;-144.96;100.00;-15791.16;5079045;28;45401;-82
2022/09/08 16:33:01;;;;;;;;;2.20;1.20;;;;;-144.96;100.00;-15791.16;5078893;28;45228;-82
2022/09/08 16:35:39;;;;;;;;;1.00;1.00;;;;;-144.96;100.00;-15791.16;5057053;28;44875;-82
2022/09/08 16:38:34;;;;;;;;;1.00;0.00;;;;;-144.96;100.00;-15791.16;5079448;27;44786;-82
2022/09/08 16:41:18;;;;;;;;;2.40;0.00;;;;;-144.96;100.00;-15791.16;5078540;28;45456;-82
2022/09/08 16:43:53;;;;;;;;;0.20;0.20;;;;;-144.96;100.00;-15791.16;5079658;28;45040;-82
2022/09/08 16:46:40;;;;;;;;;0.00;0.00;;;;;-144.96;100.00;-15791.16;5081567;27;44892;-82
2022/09/08 16:49:33;;;;;;;;;2.80;0.00;;;;;-144.96;100.00;-15791.16;5082024;28;45374;-82
2022/09/08 16:52:09;;;;;;;;;1.40;0.00;;;;;-144.96;100.00;-15791.16;5080053;28;45367;-83
2022/09/08 16:55:03;;;;;;;;;0.00;0.00;;;;;-144.96;100.00;-15791.16;5078501;28;44817;-82
2022/09/08 16:57:37;;;;;;;;;0.00;0.00;;;;;-144.96;100.00;-15791.16;5079056;28;44758;-82
2022/09/08 17:00:20;;;;;;;;;0.80;0.00;;;;;-144.96;100.00;-15791.16;5078759;27;44915;-82
2022/09/08 17:03:05;;;;;;;;;0.40;0.40;;;;;-144.96;100.00;-15791.16;5077626;27;45477;-82
2022/09/08 17:06:00;;;;;;;;;0.00;0.00;;;;;-144.96;100.00;-15791.16;5078300;27;44781;-82
2022/09/08 17:08:31;;;;;;;;;1.00;0.00;;;;;-144.96;100.00;-15791.16;5079467;27;44725;-82
2022/09/08 17:11:24;;;;;;;;;2.00;1.00;;;;;-144.96;100.00;-15791.16;5079230;27;45414;-82
2022/09/08 17:13:50;;;;;;;;;2.00;1.00;;;;;-144.96;100.00;-15791.16;5079008;27;45458;-82
2022/09/08 17:16:29;;;;;;;;;0.50;0.25;;;;;-144.96;100.00;-15791.16;5077137;28;45454;-82
2022/09/08 17:18:55;;;;;;;;;1.00;1.00;;;;;-144.96;100.00;-15791.16;5078789;28;44826;-81
2022/09/08 17:21:46;;;;;;;;;0.00;0.00;;;;;-144.96;100.00;-15791.16;5079743;27;44784;-82
2022/09/08 17:24:24;;;;;;;;;4.00;2.20;;;;;-144.96;100.00;-15791.16;5076712;27;46970;-82
2022/09/08 17:27:11;;;;;;;;;3.20;1.00;;;;;-144.96;100.00;-15791.16;5077962;28;44843;-82
2022/09/08 17:30:15;;;;;;;;;1.60;1.00;;;;;-144.96;100.00;-15791.16;5077165;27;45381;-82
2022/09/08 17:33:14;;;;;;;;;3.00;2.00;;;;;-144.96;100.00;-15791.16;5078604;27;45508;-82
2022/09/08 17:36:37;;;;;;;;;0.00;0.00;;;;;-144.96;100.00;-15791.16;5077125;27;45386;-81
2022/09/08 17:39:27;;;;;;;;;2.40;1.40;;;;;-144.96;100.00;-15791.16;4995191;28;45477;-82
2022/09/08 17:41:56;;;;;;;;;2.00;1.00;;;;;-144.96;100.00;-15791.16;4996588;28;44876;-82
2022/09/08 17:44:32;;;;;;;;;4.40;1.40;;;;;-144.96;100.00;-15791.16;4998503;28;44923;-82
2022/09/08 17:47:11;;;;;;;;;2.80;1.00;;;;;-144.96;100.00;-15791.16;4998641;28;45339;-82
2022/09/08 17:49:55;;;;;;;;;1.00;1.00;;;;;-144.96;100.00;-15791.16;4995054;28;44862;-82
2022/09/08 17:52:48;;;;;;;;;1.80;1.00;;;;;-144.96;100.00;-15791.16;4994650;28;45500;-82
2022/09/08 17:55:29;;;;;;;;;0.00;0.00;;;;;-144.96;100.00;-15791.16;4994853;28;44832;-81
2022/09/08 17:58:13;;;;;;;;;2.00;0.80;;;;;-144.96;100.00;-15791.16;4994835;28;45501;-81
2022/09/08 18:00:50;;;;;;;;;2.00;0.40;;;;;-144.96;100.00;-15791.16;4977993;28;45467;-82
2022/09/08 18:03:24;;;;;;;;;2.00;2.00;;;;;-144.96;100.00;-15791.16;4994722;28;45510;-81
2022/09/08 18:05:53;;;;;;;;;2.00;2.00;;;;;-144.96;100.00;-15791.16;4994574;28;44835;-82
2022/09/08 18:08:21;;;;;;;;;1.20;1.20;;;;;-144.96;100.00;-15791.16;4994288;28;45254;-81
2022/09/08 18:10:50;;;;;;;;;3.20;1.20;;;;;-144.96;100.00;-15791.16;5052765;28;45297;-82
2022/09/08 18:13:19;;;;;;;;;2.80;1.00;;;;;-144.96;100.00;-15791.16;5057527;28;45579;-82
2022/09/08 18:15:59;;;;;;;;;2.60;0.80;;;;;-144.96;100.00;-15791.16;5059125;28;45312;-81
2022/09/08 18:18:39;;;;;;;;;2.20;1.20;;;;;-144.96;100.00;-15791.16;5058843;28;45260;-84
2022/09/08 18:21:33;;;;;;;;;1.20;1.00;;;;;-144.96;100.00;-15791.16;5039100;28;45406;-84
2022/09/08 18:24:26;;;;;;;;;1.20;1.20;;;;;-144.96;100.00;-15191.75;5057480;28;45253;-84
2022/09/08 18:27:01;;;;;;;;;0.40;0.40;;;;;-144.96;100.00;-11409.91;5055387;28;45292;-84
2022/09/08 18:29:31;;;;;;;;;0.40;0.40;;;;;-144.96;100.00;3336.97;5058241;28;45658;-84
2022/09/08 18:32:21;;;;;;;;;0.40;0.40;;;;;-144.96;100.00;19688.59;5061813;28;44892;-83
2022/09/08 18:35:11;;;;;;;;;1.00;1.00;;;;;-144.96;100.00;36891.81;5071314;28;45371;-84
2022/09/08 18:37:48;;;;;;;;;1.20;1.20;;;;;-144.96;100.00;50145.41;5067405;27;45282;-82
2022/09/08 18:40:16;;;;;;;;;1.00;1.00;;;;;-144.96;100.00;58401.88;5076878;28;45086;-82
2022/09/08 18:43:08;;;;;;;;;0.00;0.00;;;;;-144.96;100.00;66675.53;5057621;28;45383;-82
2022/09/08 18:45:33;;;;;;;;;2.20;2.20;;;;;-144.96;100.00;81715.44;5058041;28;45368;-82
2022/09/08 18:48:19;;;;;;;;;1.00;1.00;;;;;-144.96;100.00;91860.22;5061536;28;45313;-84
2022/09/08 18:50:47;;;;;;;;;1.80;1.00;;;;;-144.96;100.00;103336.34;5039292;28;45230;-84
2022/09/08 18:53:37;;;;;;;;;4.80;1.40;;;;;-144.96;100.00;111441.31;5038833;28;45480;-84
2022/09/08 18:56:34;;;;;;;;;2.60;1.00;;;;;-144.96;100.00;115368.88;5005533;28;45341;-84
2022/09/08 18:59:35;;;;;;;;;3.40;2.20;;;;;-144.96;100.00;116156.88;5041443;28;45220;-83
2022/09/08 19:02:05;;;;;;;;;2.60;1.80;;;;;-144.96;100.00;116156.88;5038807;28;45358;-82
2022/09/08 19:05:01;;;;;;;;;4.60;1.00;;;;;-144.96;100.00;116156.88;5076901;28;45158;-83
2022/09/08 19:07:58;;;;;;;;;1.80;1.80;;;;;-144.96;100.00;116156.88;5076154;27;45345;-81
2022/09/08 19:10:42;;;;;;;;;1.00;1.00;;;;;-144.96;100.00;116156.88;5076168;27;44831;-82
2022/09/08 19:13:44;;;;;;;;;0.80;0.80;;;;;-144.96;100.00;116156.88;5075930;27;45227;-82
2022/09/08 19:16:40;;;;;;;;;1.00;1.00;;;;;-144.96;100.00;116156.88;5076197;28;44735;-81
2022/09/08 19:19:24;;;;;;;;;1.80;1.80;;;;;-144.96;100.00;116156.88;5075429;27;44752;-81
2022/09/08 19:21:50;;;;;;;;;3.20;2.00;;;;;-144.96;100.00;116156.88;5076290;27;44948;-81
2022/09/08 19:24:21;;;;;;;;;1.40;1.40;;;;;-144.96;100.00;116156.88;5076731;28;46479;-81
2022/09/08 19:26:53;;;;;;;;;1.00;1.00;;;;;-144.96;100.00;116156.88;5075803;28;44792;-81
2022/09/08 19:29:50;;;;;;;;;1.80;1.80;;;;;-144.96;100.00;116156.88;5080760;28;45379;-85
2022/09/08 19:32:22;;;;;;;;;0.00;0.00;;;;;-144.96;100.00;116156.88;5076064;28;44725;-85
2022/09/08 19:34:47;;;;;;;;;1.00;1.00;;;;;-144.96;100.00;116156.88;5061544;28;45906;-85
2022/09/08 19:37:28;;;;;;;;;2.00;2.00;;;;;-144.96;100.00;116156.88;5058231;28;45484;-85
2022/09/08 19:40:21;;;;;;;;;1.00;1.00;;;;;-144.96;100.00;116156.88;5048670;28;44704;-84
2022/09/08 19:43:10;;;;;;;;;1.60;1.60;;;;;-144.96;100.00;116156.88;5063213;28;44854;-83
2022/09/08 19:46:08;;;;;;;;;3.00;1.00;;;;;-144.96;100.00;116156.88;5078199;27;45546;-83
2022/09/08 19:48:53;;;;;;;;;4.20;0.60;;;;;-144.96;100.00;116156.88;5064968;28;45493;-83
2022/09/08 19:51:43;;;;;;;;;2.80;1.20;;;;;-144.96;100.00;116156.88;5060321;28;44753;-83
2022/09/08 19:54:25;;;;;;;;;2.60;1.00;;;;;-144.96;100.00;116156.88;5059787;28;44880;-83
2022/09/08 19:56:53;;;;;;;;;2.00;2.00;;;;;-144.96;100.00;116156.88;5059908;28;46022;-83
2022/09/08 19:59:31;;;;;;;;;1.80;1.00;;;;;-144.96;100.00;116156.88;5060331;28;44853;-83
2022/09/08 20:02:06;;;;;;;;;2.80;2.00;;;;;-144.96;100.00;116156.88;5060618;28;44738;-82
2022/09/08 20:04:57;;;;;;;;;1.00;1.00;;;;;-144.96;100.00;116156.88;5060132;28;44818;-83
2022/09/08 20:07:51;;;;;;;;;2.20;1.00;;;;;-144.96;100.00;116156.88;5074992;27;45393;-83
2022/09/08 20:10:22;;;;;;;;;1.20;1.20;;;;;-144.96;100.00;116156.88;5079265;27;45442;-81
2022/09/08 20:13:00;;;;;;;;;1.60;1.60;;;;;-144.96;100.00;116156.88;5061746;28;45209;-80
2022/09/08 20:15:29;;;;;;;;;1.80;1.80;;;;;-144.96;100.00;116156.88;5082770;28;44798;-83
2022/09/08 20:18:14;;;;;;;;;4.20;2.00;;;;;-144.96;100.00;116156.88;5083377;28;45273;-83
2022/09/08 20:20:43;;;;;;;;;2.80;2.00;;;;;-144.96;100.00;116156.88;5060175;28;45354;-83
2022/09/08 20:23:16;;;;;;;;;2.40;2.40;;;;;-144.96;100.00;116156.88;5045236;28;44819;-84
2022/09/08 20:26:07;;;;;;;;;3.00;1.40;;;;;-144.96;100.00;116156.88;5043041;28;45316;-83
2022/09/08 20:28:35;;;;;;;;;4.40;2.00;;;;;-144.96;100.00;116156.88;5041478;28;45388;-84
2022/09/08 20:31:36;;;;;;;;;1.80;1.80;;;;;-144.96;100.00;116156.88;5048095;28;44726;-86
2022/09/08 20:34:21;;;;;;;;;2.20;2.00;;;;;-144.96;100.00;116156.88;5016246;28;44920;-86
2022/09/08 20:36:58;;;;;;;;;2.00;2.00;;;;;-144.96;100.00;116156.88;5065471;28;45400;-86
2022/09/08 20:40:05;;;;;;;;;4.00;1.00;;;;;-144.96;100.00;116156.88;5063086;28;45209;-85
2022/09/08 20:42:43;;;;;;;;;3.00;3.00;;;;;-144.96;100.00;116156.88;4984435;28;44734;-85
2022/09/08 20:45:20;;;;;;;;;5.80;3.80;;;;;-144.96;100.00;116156.88;4980492;28;45422;-87
2022/09/08 20:48:08;;;;;;;;;4.80;2.60;;;;;-144.96;100.00;116156.88;4980389;28;45438;-85
2022/09/08 20:50:54;;;;;;;;;1.20;1.00;;;;;-144.96;100.00;116156.88;4983674;28;45272;-85
2022/09/08 20:53:46;;;;;;;;;4.40;3.60;;;;;-144.96;100.00;116156.88;4981125;28;44721;-85
2022/09/08 20:56:19;;;;;;;;;6.20;6.20;;;;;-144.96;100.00;116156.88;4980930;28;44917;-86
2022/09/08 20:59:01;;;;;;;;;2.40;2.40;;;;;-144.96;100.00;116156.88;4981675;28;44847;-85
2022/09/08 21:01:32;;;;;;;;;2.40;2.00;;;;;-144.96;100.00;116156.88;4993412;28;45499;-85
2022/09/08 21:03:59;;;;;;;;;2.60;2.60;;;;;-144.96;100.00;116156.88;4986498;28;44700;-85
2022/09/08 21:06:28;;;;;;;;;3.00;2.20;;;;;-144.96;100.00;116156.88;4983117;28;44818;-86
2022/09/08 21:09:01;;;;;;;;;4.40;1.60;;;;;-144.96;100.00;116156.88;4983366;28;44959;-85
2022/09/08 21:11:33;;;;;;;;;5.00;5.00;;;;;-144.96;100.00;116156.88;4983775;28;45335;-85
2022/09/08 21:14:10;;;;;;;;;2.00;2.00;;;;;-144.96;100.00;116156.88;4981541;28;45239;-87
2022/09/08 21:16:57;;;;;;;;;5.80;4.00;;;;;-144.96;100.00;116156.88;4981291;28;45221;-90
2022/09/08 21:20:18;;;;;;;;;2.00;2.00;;;;;-144.96;100.00;116156.88;5075773;28;44815;-89
2022/09/08 21:23:01;;;;;;;;;3.80;3.40;;;;;-144.96;100.00;116156.88;4987459;28;46875;-90
2022/09/08 21:25:34;;;;;;;;;3.40;3.00;;;;;-144.96;100.00;116156.88;5007378;28;44743;-90
2022/09/08 21:28:23;;;;;;;;;4.00;2.60;;;;;-144.96;100.00;116156.88;4987833;28;44720;-89
2022/09/08 21:31:04;;;;;;;;;3.00;3.00;;;;;-144.96;100.00;116156.88;4990971;28;44906;-89
2022/09/08 21:33:39;;;;;;;;;4.20;2.00;;;;;-144.96;100.00;116156.88;4988002;28;45265;-90
2022/09/08 21:36:30;;;;;;;;;3.80;2.80;;;;;-144.96;100.00;116156.88;5006487;28;45379;-92
2022/09/08 21:39:00;;;;;;;;;3.00;3.00;;;;;-144.96;100.00;116156.88;4986408;28;44748;-91
2022/09/08 21:41:34;;;;;;;;;4.80;2.60;;;;;-144.96;100.00;116156.88;4985299;28;44888;-89
2022/09/08 21:44:10;;;;;;;;;3.60;2.80;;;;;-144.96;100.00;116156.88;5021217;22;47260;-84
2022/09/08 21:46:52;;;;;;;;;4.00;2.20;;;;;-144.96;100.00;116156.88;5045336;28;44769;-86
2022/09/08 21:49:24;;;;;;;;;3.60;2.20;;;;;-144.96;100.00;116156.88;5040922;28;44757;-86
2022/09/08 21:52:02;;;;;;;;;3.40;2.00;;;;;-144.96;100.00;116156.88;5039220;28;44829;-86
2022/09/08 21:54:37;;;;;;;;;2.80;2.00;;;;;-144.96;100.00;116156.88;5041358;28;45158;-86
2022/09/08 21:57:18;;;;;;;;;2.00;2.00;;;;;-144.96;100.00;116156.88;5042839;28;44705;-86
2022/09/08 22:00:16;;;;;;;;;3.80;1.40;;;;;-144.96;100.00;116156.88;5042403;28;44699;-86
2022/09/08 22:02:48;;;;;;;;;2.20;1.00;;;;;-144.96;100.00;116156.88;5040962;28;44826;-85
2022/09/08 22:05:27;;;;;;;;;1.40;1.00;;;;;-144.96;100.00;116156.88;5041348;28;45244;-86
2022/09/08 22:08:10;;;;;;;;;3.20;1.80;;;;;-144.96;100.00;116156.88;5041667;28;45284;-86
2022/09/08 22:10:45;;;;;;;;;2.00;1.60;;;;;-144.96;100.00;116156.88;5047237;28;44713;-89
2022/09/08 22:13:23;;;;;;;;;0.40;0.40;;;;;-144.96;100.00;116156.88;5048544;28;44628;-86
2022/09/08 22:16:01;;;;;;;;;3.80;1.40;;;;;-144.96;100.00;116156.88;5056111;28;47219;-89
2022/09/08 22:18:55;;;;;;;;;2.00;2.00;;;;;-144.96;100.00;116156.88;5046482;28;44865;-86
2022/09/08 22:21:47;;;;;;;;;2.40;2.40;;;;;-144.96;100.00;116156.88;5042219;28;44918;-85
2022/09/08 22:24:29;;;;;;;;;4.00;2.00;;;;;-144.96;100.00;116156.88;5045672;28;44955;-88
2022/09/08 22:27:15;;;;;;;;;2.80;1.00;;;;;-144.96;100.00;116156.88;5029409;28;45391;-85
2022/09/08 22:29:57;;;;;;;;;4.60;2.20;;;;;-144.96;100.00;116156.88;5022370;28;44849;-85
2022/09/08 22:32:25;;;;;;;;;3.20;1.80;;;;;-144.96;100.00;116156.88;5039818;28;44829;-85
2022/09/08 22:34:59;;;;;;;;;1.40;1.00;;;;;-144.96;100.00;116156.88;5040029;28;44637;-86
2022/09/08 22:37:33;;;;;;;;;1.80;1.40;;;;;-144.96;100.00;116156.88;5021745;28;45366;-86
2022/09/08 22:40:16;;;;;;;;;2.00;2.00;;;;;-144.96;100.00;116156.88;5037353;28;44855;-86
2022/09/08 22:43:17;;;;;;;;;1.00;1.00;;;;;-144.96;100.00;116156.88;5025622;28;45504;-85
2022/09/08 22:46:09;;;;;;;;;1.40;1.00;;;;;-144.96;100.00;116156.88;4992193;28;44856;-85
2022/09/08 22:48:44;;;;;;;;;2.00;2.00;;;;;-144.96;100.00;116156.88;5044523;28;45199;-85
2022/09/08 22:51:11;;;;;;;;;2.20;1.00;;;;;-144.96;100.00;116156.88;5042531;28;45507;-85
2022/09/08 22:53:39;;;;;;;;;3.00;2.00;;;;;-144.96;100.00;116156.88;5040628;28;44860;-85
2022/09/08 22:56:14;;;;;;;;;4.40;2.00;;;;;-144.96;100.00;116156.88;5038584;28;44830;-86
2022/09/08 22:58:44;;;;;;;;;3.40;1.40;;;;;-144.96;100.00;116156.88;5026138;28;45414;-85
2022/09/08 23:01:12;;;;;;;;;0.40;0.40;;;;;-144.96;100.00;116156.88;5019840;28;45318;-85
2022/09/08 23:03:53;;;;;;;;;3.00;1.00;;;;;-144.96;100.00;116156.88;5023494;28;45175;-85
2022/09/08 23:06:26;;;;;;;;;2.00;0.80;;;;;-144.96;100.00;116156.88;5029897;28;45235;-85
2022/09/08 23:09:11;;;;;;;;;2.00;2.00;;;;;-144.96;100.00;116156.88;5031735;28;45229;-85
2022/09/08 23:11:40;;;;;;;;;1.00;1.00;;;;;-144.96;100.00;116156.88;5025293;28;45368;-85
2022/09/08 23:14:44;;;;;;;;;0.00;0.00;;;;;-144.96;100.00;116156.88;5019950;28;45345;-86
2022/09/08 23:17:37;;;;;;;;;1.00;1.00;;;;;-144.96;100.00;116156.88;5022214;28;45426;-86
2022/09/08 23:20:13;;;;;;;;;3.80;2.60;;;;;-144.96;100.00;116156.88;5023811;28;45430;-85
2022/09/08 23:22:57;;;;;;;;;2.00;1.00;;;;;-144.96;100.00;116156.88;5022735;28;44833;-86
2022/09/08 23:25:44;;;;;;;;;1.00;1.00;;;;;-144.96;100.00;116156.88;5022763;28;44821;-85
2022/09/08 23:28:10;;;;;;;;;4.20;2.00;;;;;-144.96;100.00;116156.88;5023049;28;45230;-85
2022/09/08 23:31:02;;;;;;;;;2.00;2.00;;;;;-144.96;100.00;116156.88;5024497;28;45353;-89
2022/09/08 23:33:39;;;;;;;;;0.40;0.00;;;;;-144.96;100.00;116156.88;5026543;28;44765;-89
2022/09/08 23:36:18;;;;;;;;;3.00;0.60;;;;;-144.96;100.00;116156.88;5042849;28;44749;-89
2022/09/08 23:38:59;;;;;;;;;1.40;1.00;;;;;-144.96;100.00;116156.88;5031525;28;44774;-89
2022/09/08 23:41:27;;;;;;;;;4.00;0.60;;;;;-144.96;100.00;116156.88;5025423;28;45187;-89
2022/09/08 23:43:55;;;;;;;;;2.40;1.00;;;;;-144.96;100.00;116156.88;5030692;28;44766;-89
2022/09/08 23:46:31;;;;;;;;;2.80;1.80;;;;;-144.96;100.00;116156.88;5047170;28;44806;-88
2022/09/08 23:49:02;;;;;;;;;2.40;1.00;;;;;-144.96;100.00;116156.88;5048476;28;44877;-87
2022/09/08 23:51:49;;;;;;;;;6.60;0.40;;;;;-144.96;100.00;116156.88;5050150;28;46181;-88
2022/09/08 23:54:16;;;;;;;;;6.40;1.00;;;;;-144.96;100.00;116156.88;5052397;28;44789;-88
2022/09/08 23:56:47;;;;;;;;;4.60;1.00;;;;;-144.96;100.00;116156.88;5036186;28;44961;-88
2022/09/08 23:59:15;;;;;;;;;1.00;1.00;;;;;-144.96;100.00;116156.88;5049047;28;44838;-88
